Time;durP1;ratioP1;P1;durP2;ratioP2;P2;SDS_P1;SDS_P2;PMS_P1;PMS_P2;Temp;Humidity;BMP_temperature;BMP_pressure;BME280_temperature;BME280_humidity;BME280_pressure;Samples;Min_cycle;Max_cycle;Signal;HPM_P1;HPM_P2
2022/03/10 00:00:01;;;;;;;;;;;;;;;;;;5132962;28;19907;-24
2022/03/10 00:02:27;;;;;;;;;;;;;;;;;;5132527;28;19922;-22
2022/03/10 00:04:53;;;;;;;;;;;;;;;;;;5132585;28;19908;-21
2022/03/10 00:07:19;;;;;;;;;;;;;;;;;;5132202;28;19925;-22
2022/03/10 00:09:45;;;;;;;;;;;;;;;;;;5133024;28;19912;-22
2022/03/10 00:12:11;;;;;;;;;;;;;;;;;;5132315;28;20342;-21
2022/03/10 00:14:37;;;;;;;;;;;;;;;;;;5132386;28;19961;-21
2022/03/10 00:17:03;;;;;;;;;;;;;;;;;;5132576;28;19918;-21
2022/03/10 00:19:29;;;;;;;;;;;;;;;;;;5122818;28;19916;-22
2022/03/10 00:21:55;;;;;;;;;;;;;;;;;;5118471;28;19948;-21
2022/03/10 00:24:21;;;;;;;;;;;;;;;;;;5118740;28;20319;-22
2022/03/10 00:26:47;;;;;;;;;;;;;;;;;;5118370;28;19915;-22
2022/03/10 00:29:13;;;;;;;;;;;;;;;;;;5118388;28;19919;-22
2022/03/10 00:31:42;;;;;;;;;;;;;;;;;;5118278;28;19907;-21
2022/03/10 00:34:08;;;;;;;;;;;;;;;;;;5118231;28;19999;-21
2022/03/10 00:36:34;;;;;;;;;;;;;;;;;;5117303;28;20012;-22
2022/03/10 00:39:00;;;;;;;;;;;;;;;;;;5118241;28;19977;-22
2022/03/10 00:41:26;;;;;;;;;;;;;;;;;;5118418;28;19922;-22
2022/03/10 00:43:52;;;;;;;;;;;;;;;;;;5118037;28;19994;-22
2022/03/10 00:46:18;;;;;;;;;;;;;;;;;;5118030;28;19919;-24
2022/03/10 00:48:44;;;;;;;;;;;;;;;;;;5117903;28;19915;-22
2022/03/10 00:51:10;;;;;;;;;;;;;;;;;;5118528;28;19942;-22
2022/03/10 00:53:36;;;;;;;;;;;;;;;;;;5117822;28;20249;-22
2022/03/10 00:56:02;;;;;;;;;;;;;;;;;;5116934;28;19969;-22
2022/03/10 00:58:28;;;;;;;;;;;;;;;;;;5117831;28;19912;-23
2022/03/10 01:00:55;;;;;;;;;;;;;;;;;;5118332;28;19911;-22
2022/03/10 01:03:21;;;;;;;;;;;;;;;;;;5117951;28;19915;-22
2022/03/10 01:05:47;;;;;;;;;;;;;;;;;;5117673;28;19912;-22
2022/03/10 01:08:13;;;;;;;;;;;;;;;;;;5117354;28;20060;-23
2022/03/10 01:10:39;;;;;;;;;;;;;;;;;;5117891;28;20246;-21
2022/03/10 01:13:05;;;;;;;;;;;;;;;;;;5117510;28;19923;-21
2022/03/10 01:15:31;;;;;;;;;;;;;;;;;;5117500;28;20338;-22
2022/03/10 01:17:57;;;;;;;;;;;;;;;;;;5117465;28;19960;-21
2022/03/10 01:20:23;;;;;;;;;;;;;;;;;;5118009;28;19919;-22
2022/03/10 01:22:49;;;;;;;;;;;;;;;;;;5117270;28;19919;-21
2022/03/10 01:25:15;;;;;;;;;;;;;;;;;;5117370;28;20018;-23
2022/03/10 01:27:41;;;;;;;;;;;;;;;;;;5117803;28;19916;-23
2022/03/10 01:30:06;;;;;;;;;;;;;;;;;;5116490;28;20227;-21
2022/03/10 01:32:32;;;;;;;;;;;;;;;;;;5117005;28;19919;-22
2022/03/10 01:34:58;;;;;;;;;;;;;;;;;;5117172;28;19908;-22
2022/03/10 01:37:24;;;;;;;;;;;;;;;;;;5117049;28;20354;-21
2022/03/10 01:39:51;;;;;;;;;;;;;;;;;;5117631;28;19914;-21
2022/03/10 01:42:18;;;;;;;;;;;;;;;;;;5116890;28;19912;-22
2022/03/10 01:44:44;;;;;;;;;;;;;;;;;;5116915;28;19919;-21
2022/03/10 01:47:10;;;;;;;;;;;;;;;;;;5117357;28;19915;-21
2022/03/10 01:49:36;;;;;;;;;;;;;;;;;;5117067;28;19908;-22
2022/03/10 01:52:02;;;;;;;;;;;;;;;;;;5116639;28;20006;-23
2022/03/10 01:54:28;;;;;;;;;;;;;;;;;;5117330;28;19980;-21
2022/03/10 01:56:54;;;;;;;;;;;;;;;;;;5116679;28;20258;-22
2022/03/10 01:59:20;;;;;;;;;;;;;;;;;;5116628;28;19965;-22
2022/03/10 02:01:46;;;;;;;;;;;;;;;;;;5117141;28;19912;-22
2022/03/10 02:04:12;;;;;;;;;;;;;;;;;;5116473;28;19912;-24
2022/03/10 02:06:38;;;;;;;;;;;;;;;;;;5116427;28;19912;-25
2022/03/10 02:11:49;;;;;;;;;;;;;;;;;;5116780;28;20391;-21
2022/03/10 02:19:45;;;;;;;;;;;;;;;;;;5116370;28;20018;-23
2022/03/10 02:22:11;;;;;;;;;;;;;;;;;;5116417;28;19923;-22
2022/03/10 02:24:37;;;;;;;;;;;;;;;;;;5116188;28;20346;-22
2022/03/10 02:27:03;;;;;;;;;;;;;;;;;;5116309;28;19980;-24
2022/03/10 02:29:29;;;;;;;;;;;;;;;;;;5116124;28;19961;-23
2022/03/10 02:31:55;;;;;;;;;;;;;;;;;;5116500;28;19922;-22
2022/03/10 02:34:21;;;;;;;;;;;;;;;;;;5116043;28;19914;-22
2022/03/10 02:36:47;;;;;;;;;;;;;;;;;;5116521;28;19911;-22
2022/03/10 02:39:13;;;;;;;;;;;;;;;;;;5115895;28;20338;-25
2022/03/10 02:41:39;;;;;;;;;;;;;;;;;;5115659;28;19908;-22
2022/03/10 02:44:05;;;;;;;;;;;;;;;;;;5115804;28;19922;-24
2022/03/10 02:46:32;;;;;;;;;;;;;;;;;;5115765;28;19953;-22
2022/03/10 02:48:58;;;;;;;;;;;;;;;;;;5116093;28;19912;-22
2022/03/10 02:51:23;;;;;;;;;;;;;;;;;;5115775;28;19933;-22
2022/03/10 02:53:49;;;;;;;;;;;;;;;;;;5115723;28;19958;-22
2022/03/10 02:56:16;;;;;;;;;;;;;;;;;;5115653;28;19964;-22
2022/03/10 02:58:42;;;;;;;;;;;;;;;;;;5115676;28;19912;-22
2022/03/10 03:01:08;;;;;;;;;;;;;;;;;;5116255;28;19912;-22
2022/03/10 03:03:33;;;;;;;;;;;;;;;;;;5115580;28;19935;-23
2022/03/10 03:05:59;;;;;;;;;;;;;;;;;;5115612;28;19915;-22
2022/03/10 03:08:26;;;;;;;;;;;;;;;;;;5115292;28;19982;-21
2022/03/10 03:10:52;;;;;;;;;;;;;;;;;;5115816;28;19912;-22
2022/03/10 03:13:18;;;;;;;;;;;;;;;;;;5115517;28;19908;-23
2022/03/10 03:15:44;;;;;;;;;;;;;;;;;;5115856;28;19968;-22
2022/03/10 03:18:10;;;;;;;;;;;;;;;;;;5116061;28;19912;-23
2022/03/10 03:20:36;;;;;;;;;;;;;;;;;;5115775;28;19965;-22
2022/03/10 03:23:02;;;;;;;;;;;;;;;;;;5115497;28;19920;-22
2022/03/10 03:25:28;;;;;;;;;;;;;;;;;;5115700;28;19915;-22
2022/03/10 03:27:54;;;;;;;;;;;;;;;;;;5115891;28;19922;-26
2022/03/10 03:30:20;;;;;;;;;;;;;;;;;;5115672;28;19923;-22
2022/03/10 03:32:46;;;;;;;;;;;;;;;;;;5115239;28;20342;-22
2022/03/10 03:35:12;;;;;;;;;;;;;;;;;;5115648;28;20291;-22
2022/03/10 03:37:38;;;;;;;;;;;;;;;;;;5115871;28;19911;-22
2022/03/10 03:40:04;;;;;;;;;;;;;;;;;;5115337;28;19923;-22
2022/03/10 03:42:34;;;;;;;;;;;;;;;;;;5115458;28;19915;-22
2022/03/10 03:45:00;;;;;;;;;;;;;;;;;;5115525;28;19912;-22
2022/03/10 03:47:26;;;;;;;;;;;;;;;;;;5115702;28;19930;-21
2022/03/10 03:49:51;;;;;;;;;;;;;;;;;;5115260;28;19960;-24
2022/03/10 03:52:17;;;;;;;;;;;;;;;;;;5115113;28;19918;-21
2022/03/10 03:54:43;;;;;;;;;;;;;;;;;;5117410;28;20258;-23
2022/03/10 03:57:09;;;;;;;;;;;;;;;;;;5119031;28;19912;-22
2022/03/10 03:59:36;;;;;;;;;;;;;;;;;;5119594;28;19908;-21
2022/03/10 04:02:02;;;;;;;;;;;;;;;;;;5118809;28;20338;-22
2022/03/10 04:04:28;;;;;;;;;;;;;;;;;;5118891;28;19966;-22
2022/03/10 04:06:54;;;;;;;;;;;;;;;;;;5118520;28;19926;-22
2022/03/10 04:09:20;;;;;;;;;;;;;;;;;;5119387;28;19911;-22
2022/03/10 04:11:46;;;;;;;;;;;;;;;;;;5119011;28;20220;-22
2022/03/10 04:14:12;;;;;;;;;;;;;;;;;;5118667;28;19915;-23
2022/03/10 04:16:38;;;;;;;;;;;;;;;;;;5118916;28;19912;-22
2022/03/10 04:19:05;;;;;;;;;;;;;;;;;;5118583;28;20330;-22
2022/03/10 04:21:31;;;;;;;;;;;;;;;;;;5118520;28;20007;-23
2022/03/10 04:23:57;;;;;;;;;;;;;;;;;;5119089;28;19951;-22
2022/03/10 04:26:23;;;;;;;;;;;;;;;;;;5118717;28;19912;-22
2022/03/10 04:28:49;;;;;;;;;;;;;;;;;;5118904;28;19998;-23
2022/03/10 04:31:15;;;;;;;;;;;;;;;;;;5118355;28;20360;-23
2022/03/10 04:33:41;;;;;;;;;;;;;;;;;;5118287;28;19908;-24
2022/03/10 04:36:07;;;;;;;;;;;;;;;;;;5118273;28;19919;-24
2022/03/10 04:38:33;;;;;;;;;;;;;;;;;;5118520;28;20246;-22
2022/03/10 04:40:59;;;;;;;;;;;;;;;;;;5118790;28;19908;-22
2022/03/10 04:43:25;;;;;;;;;;;;;;;;;;5118142;28;19916;-22
2022/03/10 04:45:50;;;;;;;;;;;;;;;;;;5118016;28;19912;-22
2022/03/10 04:48:16;;;;;;;;;;;;;;;;;;5117940;28;19930;-22
2022/03/10 04:50:42;;;;;;;;;;;;;;;;;;5118213;28;19919;-22
2022/03/10 04:53:08;;;;;;;;;;;;;;;;;;5118165;28;19908;-22
2022/03/10 04:55:34;;;;;;;;;;;;;;;;;;5118193;28;19916;-22
2022/03/10 04:58:00;;;;;;;;;;;;;;;;;;5118090;28;19998;-22
2022/03/10 05:00:26;;;;;;;;;;;;;;;;;;5117794;28;20003;-22
2022/03/10 05:02:52;;;;;;;;;;;;;;;;;;5117518;28;20364;-21
2022/03/10 05:05:19;;;;;;;;;;;;;;;;;;5118032;28;19960;-21
2022/03/10 05:07:45;;;;;;;;;;;;;;;;;;5117046;28;20362;-22
2022/03/10 05:10:11;;;;;;;;;;;;;;;;;;5117860;28;20025;-22
2022/03/10 05:12:37;;;;;;;;;;;;;;;;;;5117443;28;20318;-22
2022/03/10 05:15:02;;;;;;;;;;;;;;;;;;5117211;28;19919;-23
2022/03/10 05:17:29;;;;;;;;;;;;;;;;;;5117162;28;19911;-23
2022/03/10 05:19:55;;;;;;;;;;;;;;;;;;5117469;28;20007;-24
2022/03/10 05:22:21;;;;;;;;;;;;;;;;;;5117219;28;20304;-22
2022/03/10 05:24:47;;;;;;;;;;;;;;;;;;5117250;28;19944;-22
2022/03/10 05:27:13;;;;;;;;;;;;;;;;;;5117393;28;19966;-22
2022/03/10 05:29:40;;;;;;;;;;;;;;;;;;5117057;28;19911;-22
2022/03/10 05:32:06;;;;;;;;;;;;;;;;;;5117185;28;19915;-22
2022/03/10 05:34:32;;;;;;;;;;;;;;;;;;5117239;28;20246;-22
2022/03/10 05:36:58;;;;;;;;;;;;;;;;;;5117495;28;19912;-22
2022/03/10 05:39:24;;;;;;;;;;;;;;;;;;5117237;27;19912;-22
2022/03/10 05:41:50;;;;;;;;;;;;;;;;;;5117254;28;20353;-23
2022/03/10 05:44:16;;;;;;;;;;;;;;;;;;5116648;28;20010;-23
2022/03/10 05:46:42;;;;;;;;;;;;;;;;;;5116557;28;19912;-22
2022/03/10 05:49:08;;;;;;;;;;;;;;;;;;5116878;28;19907;-23
2022/03/10 05:51:36;;;;;;;;;;;;;;;;;;5117114;28;19915;-22
2022/03/10 05:54:02;;;;;;;;;;;;;;;;;;5116773;28;20010;-22
2022/03/10 05:56:28;;;;;;;;;;;;;;;;;;5116513;28;19951;-22
2022/03/10 05:58:54;;;;;;;;;;;;;;;;;;5116205;28;20297;-22
2022/03/10 06:04:02;;;;;;;;;;;;;;;;;;5051314;23;19929;-30
2022/03/10 06:06:28;;;;;;;;;;;;;;;;;;5035609;28;20382;-30
2022/03/10 06:08:54;;;;;;;;;;;;;;;;;;5034523;28;19948;-30
2022/03/10 06:11:20;;;;;;;;;;;;;;;;;;5035557;28;19916;-30
2022/03/10 06:13:46;;;;;;;;;;;;;;;;;;5035353;28;19920;-30
2022/03/10 06:16:12;;;;;;;;;;;;;;;;;;5035195;28;20000;-30
2022/03/10 06:18:38;;;;;;;;;;;;;;;;;;5035430;28;19955;-30
2022/03/10 06:21:05;;;;;;;;;;;;;;;;;;5035382;28;19913;-30
2022/03/10 06:23:31;;;;;;;;;;;;;;;;;;5035343;28;19920;-29
2022/03/10 06:25:57;;;;;;;;;;;;;;;;;;5035225;28;19919;-29
2022/03/10 06:28:23;;;;;;;;;;;;;;;;;;5035373;28;20204;-30
2022/03/10 06:30:49;;;;;;;;;;;;;;;;;;5034322;28;19924;-29
2022/03/10 06:33:15;;;;;;;;;;;;;;;;;;5035419;28;19932;-29
2022/03/10 06:35:41;;;;;;;;;;;;;;;;;;5035177;28;19917;-29
2022/03/10 06:38:08;;;;;;;;;;;;;;;;;;5035186;28;19920;-30
2022/03/10 06:40:34;;;;;;;;;;;;;;;;;;5034901;28;20338;-29
2022/03/10 06:43:00;;;;;;;;;;;;;;;;;;5034975;28;19917;-30
2022/03/10 06:45:26;;;;;;;;;;;;;;;;;;5034938;28;19909;-29
2022/03/10 06:47:52;;;;;;;;;;;;;;;;;;5033982;28;19924;-30
2022/03/10 06:50:19;;;;;;;;;;;;;;;;;;5035790;28;19913;-29
2022/03/10 06:52:45;;;;;;;;;;;;;;;;;;5035133;28;20012;-30
2022/03/10 06:55:11;;;;;;;;;;;;;;;;;;5034815;28;20279;-28
2022/03/10 06:57:37;;;;;;;;;;;;;;;;;;5033704;28;19909;-30
2022/03/10 07:00:05;;;;;;;;;;;;;;;;;;5035603;28;20223;-29
2022/03/10 07:02:30;;;;;;;;;;;;;;;;;;5034622;28;19917;-30
2022/03/10 07:04:56;;;;;;;;;;;;;;;;;;5035075;28;19924;-29
2022/03/10 07:07:22;;;;;;;;;;;;;;;;;;5034930;28;19925;-30
2022/03/10 07:09:49;;;;;;;;;;;;;;;;;;5033750;28;20339;-30
2022/03/10 07:12:15;;;;;;;;;;;;;;;;;;5034617;28;19921;-29
2022/03/10 07:14:41;;;;;;;;;;;;;;;;;;5034941;28;19914;-29
2022/03/10 07:17:07;;;;;;;;;;;;;;;;;;5034636;28;20352;-30
2022/03/10 07:19:33;;;;;;;;;;;;;;;;;;5033711;28;20024;-29
2022/03/10 07:21:59;;;;;;;;;;;;;;;;;;5033636;28;19913;-30
2022/03/10 07:24:25;;;;;;;;;;;;;;;;;;5034572;28;20030;-30
2022/03/10 07:26:51;;;;;;;;;;;;;;;;;;5034826;28;19940;-30
2022/03/10 07:29:17;;;;;;;;;;;;;;;;;;5036203;28;20351;-30
2022/03/10 07:31:43;;;;;;;;;;;;;;;;;;5037676;28;19924;-29
2022/03/10 07:34:09;;;;;;;;;;;;;;;;;;5038711;28;19909;-30
2022/03/10 07:36:35;;;;;;;;;;;;;;;;;;5038445;28;19917;-29
2022/03/10 07:39:01;;;;;;;;;;;;;;;;;;5038557;28;19963;-30
2022/03/10 07:41:27;;;;;;;;;;;;;;;;;;5038519;28;19913;-30
2022/03/10 07:43:53;;;;;;;;;;;;;;;;;;5038326;28;19963;-30
2022/03/10 07:46:22;;;;;;;;;;;;;;;;;;5038644;28;20091;-29
2022/03/10 07:48:48;;;;;;;;;;;;;;;;;;5038442;28;19913;-29
2022/03/10 07:51:14;;;;;;;;;;;;;;;;;;5038278;28;20363;-30
2022/03/10 07:53:40;;;;;;;;;;;;;;;;;;5038153;28;19913;-30
2022/03/10 07:56:06;;;;;;;;;;;;;;;;;;5037367;28;20259;-30
2022/03/10 07:58:33;;;;;;;;;;;;;;;;;;5037884;28;19910;-28
2022/03/10 08:00:59;;;;;;;;;;;;;;;;;;5038270;28;19924;-28
2022/03/10 08:03:28;;;;;;;;;;;;;;;;;;5037527;28;20358;-28
2022/03/10 08:05:54;;;;;;;;;;;;;;;;;;5037793;28;19935;-28
2022/03/10 08:08:20;;;;;;;;;;;;;;;;;;5036513;28;19928;-29
2022/03/10 08:10:46;;;;;;;;;;;;;;;;;;5037999;28;19991;-29
2022/03/10 08:13:12;;;;;;;;;;;;;;;;;;5037676;28;19913;-29
2022/03/10 08:15:40;;;;;;;;;;;;;;;;;;5037727;28;19920;-29
2022/03/10 08:18:06;;;;;;;;;;;;;;;;;;5036892;28;19913;-28
2022/03/10 08:20:32;;;;;;;;;;;;;;;;;;5036863;28;19913;-29
2022/03/10 08:22:58;;;;;;;;;;;;;;;;;;5037788;28;19916;-34
2022/03/10 08:25:24;;;;;;;;;;;;;;;;;;5038024;28;19913;-30
2022/03/10 08:27:50;;;;;;;;;;;;;;;;;;5037536;28;20012;-29
2022/03/10 08:30:16;;;;;;;;;;;;;;;;;;5037893;28;19944;-29
2022/03/10 08:32:42;;;;;;;;;;;;;;;;;;5036491;28;20003;-29
2022/03/10 08:35:08;;;;;;;;;;;;;;;;;;5036257;28;20006;-30
2022/03/10 08:37:34;;;;;;;;;;;;;;;;;;5036549;28;19995;-29
2022/03/10 08:40:00;;;;;;;;;;;;;;;;;;5036983;28;19940;-29
2022/03/10 08:42:26;;;;;;;;;;;;;;;;;;5037545;28;19921;-29
2022/03/10 08:44:52;;;;;;;;;;;;;;;;;;5037432;28;19917;-29
2022/03/10 08:47:18;;;;;;;;;;;;;;;;;;5037132;28;20354;-29
2022/03/10 08:49:45;;;;;;;;;;;;;;;;;;5037598;28;19917;-29
2022/03/10 08:52:11;;;;;;;;;;;;;;;;;;5037221;28;19913;-30
2022/03/10 08:54:37;;;;;;;;;;;;;;;;;;5037173;28;19936;-29
2022/03/10 08:57:03;;;;;;;;;;;;;;;;;;5037178;28;19913;-29
2022/03/10 08:59:29;;;;;;;;;;;;;;;;;;5037189;28;19909;-29
2022/03/10 09:01:55;;;;;;;;;;;;;;;;;;5036939;28;19913;-29
2022/03/10 09:04:21;;;;;;;;;;;;;;;;;;5036717;28;19932;-28
2022/03/10 09:06:47;;;;;;;;;;;;;;;;;;5037059;28;19913;-29
2022/03/10 09:09:14;;;;;;;;;;;;;;;;;;5036861;28;19920;-30
2022/03/10 09:11:40;;;;;;;;;;;;;;;;;;5036994;28;19940;-28
2022/03/10 09:14:06;;;;;;;;;;;;;;;;;;5036955;28;19910;-29
2022/03/10 09:16:32;;;;;;;;;;;;;;;;;;5035648;28;19913;-30
2022/03/10 09:19:00;;;;;;;;;;;;;;;;;;5036551;28;19913;-30
2022/03/10 09:21:26;;;;;;;;;;;;;;;;;;5036788;28;19961;-27
2022/03/10 09:23:52;;;;;;;;;;;;;;;;;;5036671;28;19931;-29
2022/03/10 09:26:18;;;;;;;;;;;;;;;;;;5036503;28;19913;-28
2022/03/10 09:28:44;;;;;;;;;;;;;;;;;;5036563;28;19923;-28
2022/03/10 09:31:12;;;;;;;;;;;;;;;;;;5036360;28;20359;-28
2022/03/10 09:33:38;;;;;;;;;;;;;;;;;;5036636;28;20276;-30
2022/03/10 09:36:04;;;;;;;;;;;;;;;;;;5036467;28;20301;-28
2022/03/10 09:38:30;;;;;;;;;;;;;;;;;;5035474;28;19917;-28
2022/03/10 09:40:56;;;;;;;;;;;;;;;;;;5035535;28;20264;-28
2022/03/10 09:43:22;;;;;;;;;;;;;;;;;;5035298;28;19913;-29
2022/03/10 09:45:48;;;;;;;;;;;;;;;;;;5035287;28;19917;-28
2022/03/10 09:48:15;;;;;;;;;;;;;;;;;;5036083;28;19964;-31
2022/03/10 09:50:40;;;;;;;;;;;;;;;;;;5036191;28;19983;-29
2022/03/10 09:53:06;;;;;;;;;;;;;;;;;;5035420;28;19909;-29
2022/03/10 09:55:32;;;;;;;;;;;;;;;;;;5036361;28;20385;-30
2022/03/10 09:57:58;;;;;;;;;;;;;;;;;;5036330;28;19971;-29
2022/03/10 10:00:24;;;;;;;;;;;;;;;;;;5036017;28;20402;-29
2022/03/10 10:02:51;;;;;;;;;;;;;;;;;;5035763;28;19925;-29
2022/03/10 10:05:17;;;;;;;;;;;;;;;;;;5036217;28;20258;-29
2022/03/10 10:07:43;;;;;;;;;;;;;;;;;;5036076;28;19924;-29
2022/03/10 10:10:10;;;;;;;;;;;;;;;;;;5035750;28;19909;-29
2022/03/10 10:12:36;;;;;;;;;;;;;;;;;;5035923;28;19920;-29
2022/03/10 10:15:03;;;;;;;;;;;;;;;;;;5035758;28;20308;-29
2022/03/10 10:17:29;;;;;;;;;;;;;;;;;;5036028;28;19909;-29
2022/03/10 10:19:56;;;;;;;;;;;;;;;;;;5035826;28;20362;-29
2022/03/10 10:22:25;;;;;;;;;;;;;;;;;;5035501;28;19975;-30
2022/03/10 10:24:51;;;;;;;;;;;;;;;;;;5036049;28;19932;-30
2022/03/10 10:27:17;;;;;;;;;;;;;;;;;;5035668;28;19917;-30
2022/03/10 10:29:44;;;;;;;;;;;;;;;;;;5035388;28;20245;-30
2022/03/10 10:32:10;;;;;;;;;;;;;;;;;;5035236;28;19927;-29
2022/03/10 10:34:36;;;;;;;;;;;;;;;;;;5034458;28;20252;-29
2022/03/10 10:37:02;;;;;;;;;;;;;;;;;;5035517;28;19913;-30
2022/03/10 10:39:28;;;;;;;;;;;;;;;;;;5035208;28;20414;-30
2022/03/10 10:41:54;;;;;;;;;;;;;;;;;;5035417;28;19926;-30
2022/03/10 10:44:20;;;;;;;;;;;;;;;;;;5035209;28;19995;-29
2022/03/10 10:46:48;;;;;;;;;;;;;;;;;;5035262;28;19909;-29
2022/03/10 10:49:17;;;;;;;;;;;;;;;;;;5035597;28;20407;-29
2022/03/10 10:51:46;;;;;;;;;;;;;;;;;;5033995;28;19924;-30
2022/03/10 10:54:12;;;;;;;;;;;;;;;;;;5034889;28;19916;-30
2022/03/10 10:56:38;;;;;;;;;;;;;;;;;;5034921;28;19913;-30
2022/03/10 10:59:04;;;;;;;;;;;;;;;;;;5034998;28;19935;-29
2022/03/10 11:01:30;;;;;;;;;;;;;;;;;;5034077;28;19979;-30
2022/03/10 11:03:56;;;;;;;;;;;;;;;;;;5034692;28;19947;-30
2022/03/10 11:06:22;;;;;;;;;;;;;;;;;;5034814;28;20345;-30
2022/03/10 11:08:48;;;;;;;;;;;;;;;;;;5035155;28;19971;-29
2022/03/10 11:11:18;;;;;;;;;;;;;;;;;;5035080;28;20406;-29
2022/03/10 11:13:43;;;;;;;;;;;;;;;;;;5033760;28;19909;-30
2022/03/10 11:16:09;;;;;;;;;;;;;;;;;;5035061;28;19917;-30
2022/03/10 11:18:35;;;;;;;;;;;;;;;;;;5034720;28;19910;-29
2022/03/10 11:21:01;;;;;;;;;;;;;;;;;;5034645;28;20356;-30
2022/03/10 11:23:27;;;;;;;;;;;;;;;;;;5034233;28;20003;-29
2022/03/10 11:25:54;;;;;;;;;;;;;;;;;;5033897;28;19936;-29
2022/03/10 11:28:20;;;;;;;;;;;;;;;;;;5033674;28;19932;-29
2022/03/10 11:30:46;;;;;;;;;;;;;;;;;;5034934;28;19909;-29
2022/03/10 11:33:12;;;;;;;;;;;;;;;;;;5034595;28;20339;-29
2022/03/10 11:35:38;;;;;;;;;;;;;;;;;;5034572;28;19927;-30
2022/03/10 11:38:04;;;;;;;;;;;;;;;;;;5034483;28;19909;-30
2022/03/10 11:40:30;;;;;;;;;;;;;;;;;;5033655;28;19923;-30
2022/03/10 11:42:56;;;;;;;;;;;;;;;;;;5034478;28;19963;-30
2022/03/10 11:45:24;;;;;;;;;;;;;;;;;;5034463;28;19920;-30
2022/03/10 11:47:50;;;;;;;;;;;;;;;;;;5034433;28;19925;-30
2022/03/10 11:50:16;;;;;;;;;;;;;;;;;;5034589;28;19917;-30
2022/03/10 11:52:42;;;;;;;;;;;;;;;;;;5033237;28;20055;-30
2022/03/10 11:55:08;;;;;;;;;;;;;;;;;;5033430;28;19913;-30
2022/03/10 11:57:35;;;;;;;;;;;;;;;;;;5033484;28;19909;-29
2022/03/10 12:00:01;;;;;;;;;;;;;;;;;;5034699;28;19920;-30
2022/03/10 12:02:27;;;;;;;;;;;;;;;;;;5034094;28;19928;-31
2022/03/10 12:04:53;;;;;;;;;;;;;;;;;;5033446;28;19909;-30
2022/03/10 12:07:19;;;;;;;;;;;;;;;;;;5034637;28;20577;-30
2022/03/10 12:09:45;;;;;;;;;;;;;;;;;;5034374;28;19909;-31
2022/03/10 12:12:11;;;;;;;;;;;;;;;;;;5034747;28;19913;-30
2022/03/10 12:14:37;;;;;;;;;;;;;;;;;;5034481;28;19975;-29
2022/03/10 12:17:03;;;;;;;;;;;;;;;;;;5037730;28;19971;-30
2022/03/10 12:19:30;;;;;;;;;;;;;;;;;;5037814;28;19940;-29
2022/03/10 12:21:56;;;;;;;;;;;;;;;;;;5037613;28;19944;-30
2022/03/10 12:24:22;;;;;;;;;;;;;;;;;;5036733;28;20256;-30
2022/03/10 12:26:48;;;;;;;;;;;;;;;;;;5037382;28;19924;-30
2022/03/10 12:29:14;;;;;;;;;;;;;;;;;;5037265;28;19920;-30
2022/03/10 12:31:40;;;;;;;;;;;;;;;;;;5037351;28;19917;-30
2022/03/10 12:34:06;;;;;;;;;;;;;;;;;;5037890;28;19940;-30
2022/03/10 12:36:32;;;;;;;;;;;;;;;;;;5036506;28;20326;-30
2022/03/10 12:38:58;;;;;;;;;;;;;;;;;;5037649;28;19948;-30
2022/03/10 12:41:24;;;;;;;;;;;;;;;;;;5037286;28;19913;-30
2022/03/10 12:43:50;;;;;;;;;;;;;;;;;;5036299;28;19913;-30
2022/03/10 12:46:16;;;;;;;;;;;;;;;;;;5037321;28;20012;-31
2022/03/10 12:48:43;;;;;;;;;;;;;;;;;;5037432;28;19917;-30
2022/03/10 12:51:09;;;;;;;;;;;;;;;;;;5037310;28;19909;-30
2022/03/10 12:53:35;;;;;;;;;;;;;;;;;;5037209;28;20217;-30
2022/03/10 12:56:01;;;;;;;;;;;;;;;;;;5036207;28;19958;-30
2022/03/10 12:58:27;;;;;;;;;;;;;;;;;;5037231;28;19913;-29
2022/03/10 13:00:54;;;;;;;;;;;;;;;;;;5037573;28;19959;-31
2022/03/10 13:03:20;;;;;;;;;;;;;;;;;;5035598;28;20271;-30
2022/03/10 13:05:46;;;;;;;;;;;;;;;;;;5035734;28;20259;-30
2022/03/10 13:08:13;;;;;;;;;;;;;;;;;;5036908;28;20000;-30
2022/03/10 13:10:39;;;;;;;;;;;;;;;;;;5036581;28;19913;-30
2022/03/10 13:13:05;;;;;;;;;;;;;;;;;;5035525;28;19920;-30
2022/03/10 13:15:33;;;;;;;;;;;;;;;;;;5036705;28;20394;-30
2022/03/10 13:17:59;;;;;;;;;;;;;;;;;;5036473;28;19917;-29
2022/03/10 13:20:25;;;;;;;;;;;;;;;;;;5036539;28;19920;-29
2022/03/10 13:22:51;;;;;;;;;;;;;;;;;;5036587;28;19913;-30
2022/03/10 13:25:17;;;;;;;;;;;;;;;;;;5036678;28;20244;-31
2022/03/10 13:27:44;;;;;;;;;;;;;;;;;;5036343;28;19925;-29
2022/03/10 13:30:11;;;;;;;;;;;;;;;;;;5035452;28;20260;-30
2022/03/10 13:32:37;;;;;;;;;;;;;;;;;;5036262;28;19924;-30
2022/03/10 13:35:03;;;;;;;;;;;;;;;;;;5036227;28;19909;-31
2022/03/10 13:37:29;;;;;;;;;;;;;;;;;;5035319;28;19913;-30
2022/03/10 13:39:55;;;;;;;;;;;;;;;;;;5036268;28;20012;-30
2022/03/10 13:42:21;;;;;;;;;;;;;;;;;;5036402;28;19953;-30
2022/03/10 13:44:47;;;;;;;;;;;;;;;;;;5036386;28;19913;-30
2022/03/10 13:47:13;;;;;;;;;;;;;;;;;;5036180;28;19924;-30
2022/03/10 13:49:39;;;;;;;;;;;;;;;;;;5035892;28;20012;-29
2022/03/10 13:52:05;;;;;;;;;;;;;;;;;;5034731;28;20358;-30
2022/03/10 13:54:31;;;;;;;;;;;;;;;;;;5035833;28;19924;-30
2022/03/10 13:56:57;;;;;;;;;;;;;;;;;;5034965;28;19924;-30
2022/03/10 13:59:23;;;;;;;;;;;;;;;;;;5036096;28;19909;-30
2022/03/10 14:01:49;;;;;;;;;;;;;;;;;;5035863;28;19913;-30
2022/03/10 14:04:15;;;;;;;;;;;;;;;;;;5035594;28;19921;-30
2022/03/10 14:06:41;;;;;;;;;;;;;;;;;;5035761;28;20351;-30
2022/03/10 14:09:07;;;;;;;;;;;;;;;;;;5035822;28;20259;-30
2022/03/10 14:11:34;;;;;;;;;;;;;;;;;;5034551;28;19915;-29
2022/03/10 14:14:00;;;;;;;;;;;;;;;;;;5035554;28;19924;-30
2022/03/10 14:16:29;;;;;;;;;;;;;;;;;;5035667;28;19910;-30
2022/03/10 14:18:56;;;;;;;;;;;;;;;;;;5035466;28;19909;-30
2022/03/10 14:21:22;;;;;;;;;;;;;;;;;;5035571;28;19951;-30
2022/03/10 14:23:48;;;;;;;;;;;;;;;;;;5035342;28;19909;-30
2022/03/10 14:26:15;;;;;;;;;;;;;;;;;;5034266;28;19943;-30
2022/03/10 14:28:42;;;;;;;;;;;;;;;;;;5035114;28;19917;-30
2022/03/10 14:31:08;;;;;;;;;;;;;;;;;;5034250;28;19966;-30
2022/03/10 14:33:34;;;;;;;;;;;;;;;;;;5035081;28;19920;-29
2022/03/10 14:36:00;;;;;;;;;;;;;;;;;;5035280;28;19913;-29
2022/03/10 14:38:26;;;;;;;;;;;;;;;;;;5034805;28;19920;-36
2022/03/10 14:40:52;;;;;;;;;;;;;;;;;;5034158;28;19909;-29
2022/03/10 14:43:18;;;;;;;;;;;;;;;;;;5035470;28;19913;-30
2022/03/10 14:45:45;;;;;;;;;;;;;;;;;;5035168;28;19913;-29
2022/03/10 14:48:11;;;;;;;;;;;;;;;;;;5034004;28;20248;-29
2022/03/10 14:50:37;;;;;;;;;;;;;;;;;;5035308;28;20229;-29
2022/03/10 14:53:03;;;;;;;;;;;;;;;;;;5034971;28;20379;-29
2022/03/10 14:55:29;;;;;;;;;;;;;;;;;;5035195;28;19913;-29
2022/03/10 14:57:55;;;;;;;;;;;;;;;;;;5034839;28;20373;-30
2022/03/10 15:00:21;;;;;;;;;;;;;;;;;;5034770;28;19913;-29
2022/03/10 15:02:47;;;;;;;;;;;;;;;;;;5034622;28;20055;-29
2022/03/10 15:05:13;;;;;;;;;;;;;;;;;;5035041;28;19928;-29
2022/03/10 15:07:39;;;;;;;;;;;;;;;;;;5034692;28;20036;-29
2022/03/10 15:10:05;;;;;;;;;;;;;;;;;;5034797;28;20352;-29
2022/03/10 15:12:31;;;;;;;;;;;;;;;;;;5033790;28;19921;-29
2022/03/10 15:14:57;;;;;;;;;;;;;;;;;;5034755;28;19992;-29
2022/03/10 15:17:23;;;;;;;;;;;;;;;;;;5034791;28;19935;-29
2022/03/10 15:19:49;;;;;;;;;;;;;;;;;;5034864;28;20124;-29
2022/03/10 15:22:15;;;;;;;;;;;;;;;;;;5034811;28;20000;-29
2022/03/10 15:24:41;;;;;;;;;;;;;;;;;;5034832;28;20246;-28
2022/03/10 15:27:07;;;;;;;;;;;;;;;;;;5034708;28;19924;-28
2022/03/10 15:29:33;;;;;;;;;;;;;;;;;;5033722;28;19992;-29
2022/03/10 15:32:00;;;;;;;;;;;;;;;;;;5034556;28;19917;-30
2022/03/10 15:34:26;;;;;;;;;;;;;;;;;;5034453;28;19991;-29
2022/03/10 15:36:52;;;;;;;;;;;;;;;;;;5033922;28;20350;-29
2022/03/10 15:39:18;;;;;;;;;;;;;;;;;;5034655;28;19909;-29
2022/03/10 15:41:45;;;;;;;;;;;;;;;;;;5034552;28;19924;-29
2022/03/10 15:44:11;;;;;;;;;;;;;;;;;;5034645;28;19909;-29
2022/03/10 15:46:38;;;;;;;;;;;;;;;;;;5034663;28;19913;-29
2022/03/10 15:49:04;;;;;;;;;;;;;;;;;;5034626;28;20332;-29
2022/03/10 15:51:30;;;;;;;;;;;;;;;;;;5038138;28;19971;-29
2022/03/10 15:53:56;;;;;;;;;;;;;;;;;;5038269;28;19909;-29
2022/03/10 15:56:22;;;;;;;;;;;;;;;;;;5038271;28;19975;-28
2022/03/10 15:58:48;;;;;;;;;;;;;;;;;;5038176;28;20295;-29
2022/03/10 16:01:20;;;;;;;;;;;;;;;;;;5038390;28;20075;-30
2022/03/10 16:03:46;;;;;;;;;;;;;;;;;;5037835;28;19921;-29
2022/03/10 16:06:12;;;;;;;;;;;;;;;;;;5038253;28;20019;-28
2022/03/10 16:08:38;;;;;;;;;;;;;;;;;;5038023;28;20402;-30
2022/03/10 16:11:04;;;;;;;;;;;;;;;;;;5038190;28;20248;-29
2022/03/10 16:13:30;;;;;;;;;;;;;;;;;;5037985;28;19920;-29
2022/03/10 16:15:57;;;;;;;;;;;;;;;;;;5038135;28;20051;-29
2022/03/10 16:18:23;;;;;;;;;;;;;;;;;;5037738;28;19913;-29
2022/03/10 16:20:49;;;;;;;;;;;;;;;;;;5038068;28;19944;-29
2022/03/10 16:23:15;;;;;;;;;;;;;;;;;;5037589;28;20003;-29
2022/03/10 16:25:41;;;;;;;;;;;;;;;;;;5037679;28;20326;-28
2022/03/10 16:28:07;;;;;;;;;;;;;;;;;;5036540;28;19927;-29
2022/03/10 16:30:34;;;;;;;;;;;;;;;;;;5037541;28;19909;-29
2022/03/10 16:33:00;;;;;;;;;;;;;;;;;;5037594;28;19917;-29
2022/03/10 16:35:26;;;;;;;;;;;;;;;;;;5037280;28;19949;-29
2022/03/10 16:37:53;;;;;;;;;;;;;;;;;;5035989;28;19924;-29
2022/03/10 16:40:19;;;;;;;;;;;;;;;;;;5036439;28;20185;-29
2022/03/10 16:42:45;;;;;;;;;;;;;;;;;;5037337;28;19999;-28
2022/03/10 16:45:11;;;;;;;;;;;;;;;;;;5037742;28;19913;-28
2022/03/10 16:47:37;;;;;;;;;;;;;;;;;;5037366;28;19956;-28